createdAt,value
2023-02-16T00:00:27.359Z,99.90
2023-02-16T00:02:53.951Z,99.90
2023-02-16T00:05:38.554Z,99.90
2023-02-16T00:08:05.238Z,99.90
2023-02-16T00:10:35.407Z,99.90
2023-02-16T00:13:37.712Z,99.90
2023-02-16T00:16:04.557Z,99.90
2023-02-16T00:18:31.051Z,99.90
2023-02-16T00:20:57.529Z,99.90
2023-02-16T00:23:23.978Z,99.90
2023-02-16T00:25:50.550Z,99.90
2023-02-16T00:28:20.091Z,99.90
2023-02-16T00:30:47.694Z,99.90
2023-02-16T00:33:20.833Z,99.90
2023-02-16T00:35:47.530Z,99.90
2023-02-16T00:38:15.226Z,99.90
2023-02-16T00:40:42.659Z,99.90
2023-02-16T00:43:33.072Z,99.90
2023-02-16T00:45:59.664Z,99.90
2023-02-16T00:48:26.226Z,99.90
2023-02-16T00:50:52.751Z,99.90
2023-02-16T00:53:19.249Z,99.90
2023-02-16T00:55:45.790Z,99.90
2023-02-16T00:58:33.045Z,99.90
2023-02-16T01:01:15.227Z,99.90
2023-02-16T01:03:43.330Z,99.90
2023-02-16T01:06:29.618Z,99.90
2023-02-16T01:09:31.254Z,99.90
2023-02-16T01:11:57.925Z,99.90
2023-02-16T01:14:25.472Z,99.90
2023-02-16T01:16:52.284Z,99.90
2023-02-16T01:19:18.897Z,99.90
2023-02-16T01:21:45.392Z,99.90
2023-02-16T01:24:11.879Z,99.90
2023-02-16T01:26:45.903Z,99.90
2023-02-16T01:29:20.812Z,99.90
2023-02-16T01:31:47.916Z,99.90
2023-02-16T01:34:14.968Z,99.90
2023-02-16T01:36:48.619Z,99.90
2023-02-16T01:39:18.704Z,99.90
2023-02-16T01:43:28.023Z,99.90
2023-02-16T01:47:55.070Z,99.90
2023-02-16T01:50:30.630Z,99.90
2023-02-16T01:53:13.502Z,99.90
2023-02-16T01:55:46.483Z,99.90
2023-02-16T01:59:04.465Z,99.90
2023-02-16T02:02:44.416Z,99.90
2023-02-16T02:05:36.773Z,99.90
2023-02-16T02:09:13.625Z,99.90
2023-02-16T02:11:54.488Z,99.90
2023-02-16T02:14:34.710Z,99.90
2023-02-16T02:17:12.906Z,99.90
2023-02-16T02:20:01.200Z,99.90
2023-02-16T02:23:33.035Z,99.90
2023-02-16T02:28:14.103Z,99.90
2023-02-16T02:36:09.262Z,99.90
2023-02-16T02:43:15.234Z,99.90
2023-02-16T02:45:51.952Z,99.90
2023-02-16T02:48:18.446Z,99.90
2023-02-16T02:51:13.702Z,99.90
2023-02-16T02:53:49.749Z,99.90
2023-02-16T02:56:36.452Z,99.90
2023-02-16T02:59:27.409Z,99.90
2023-02-16T03:01:59.956Z,99.90
2023-02-16T03:04:30.263Z,99.90
2023-02-16T03:07:00.349Z,99.90
2023-02-16T03:09:27.209Z,99.90
2023-02-16T03:12:15.016Z,99.90
2023-02-16T03:14:57.152Z,99.90
2023-02-16T03:17:52.622Z,99.90
2023-02-16T03:20:38.531Z,99.90
2023-02-16T03:23:25.542Z,99.90
2023-02-16T03:26:10.909Z,99.90
2023-02-16T03:29:00.781Z,99.90
2023-02-16T03:31:46.403Z,99.90
2023-02-16T03:34:14.405Z,99.90
2023-02-16T03:36:46.126Z,99.90
2023-02-16T03:39:12.953Z,99.90
2023-02-16T03:41:47.233Z,99.90
2023-02-16T03:44:14.438Z,99.90
2023-02-16T03:46:41.272Z,99.90
2023-02-16T03:49:07.956Z,99.90
2023-02-16T03:51:34.413Z,99.90
2023-02-16T03:54:01.037Z,99.90
2023-02-16T03:56:27.666Z,99.90
2023-02-16T03:58:54.216Z,99.90
2023-02-16T04:01:20.677Z,99.90
2023-02-16T04:03:47.348Z,99.90
2023-02-16T04:06:13.888Z,99.90
2023-02-16T04:08:40.367Z,99.90
2023-02-16T04:12:35.431Z,99.90
2023-02-16T04:15:04.657Z,99.90
2023-02-16T04:17:31.144Z,99.90
2023-02-16T04:19:57.802Z,99.90
2023-02-16T04:22:24.299Z,99.90
2023-02-16T04:24:50.832Z,99.90
2023-02-16T04:27:17.525Z,99.90
2023-02-16T04:29:44.001Z,99.90
2023-02-16T04:32:10.665Z,99.90
2023-02-16T04:34:37.181Z,99.90
2023-02-16T04:37:05.029Z,99.90
2023-02-16T04:39:32.095Z,99.90
2023-02-16T04:41:58.628Z,99.90
2023-02-16T04:44:25.117Z,99.90
2023-02-16T04:46:51.636Z,99.90
2023-02-16T04:49:18.198Z,99.90
2023-02-16T04:51:44.710Z,99.90
2023-02-16T04:54:11.200Z,99.90
2023-02-16T04:56:37.674Z,99.90
2023-02-16T04:59:04.444Z,99.90
2023-02-16T05:01:31.090Z,99.90
2023-02-16T05:03:57.619Z,99.90
2023-02-16T05:06:24.109Z,99.90
2023-02-16T05:08:50.597Z,99.90
2023-02-16T05:11:35.355Z,99.90
2023-02-16T05:14:20.328Z,99.90
2023-02-16T05:16:47.004Z,99.90
2023-02-16T05:19:13.695Z,99.90
2023-02-16T05:21:40.177Z,99.90
2023-02-16T05:24:10.205Z,99.90
2023-02-16T05:26:40.840Z,99.90
2023-02-16T05:29:07.417Z,99.90
2023-02-16T05:31:34.135Z,99.90
2023-02-16T05:34:00.684Z,99.90
2023-02-16T05:36:27.376Z,99.90
2023-02-16T05:38:53.918Z,99.90
2023-02-16T05:41:23.420Z,99.90
2023-02-16T05:43:56.328Z,99.90
2023-02-16T05:46:24.586Z,99.90
2023-02-16T05:48:52.126Z,99.90
2023-02-16T05:51:19.333Z,99.90
2023-02-16T05:53:46.202Z,99.90
2023-02-16T05:56:13.526Z,99.90
2023-02-16T05:58:40.300Z,99.90
2023-02-16T06:01:06.850Z,99.90
2023-02-16T06:03:35.091Z,99.90
2023-02-16T06:06:03.489Z,99.90
2023-02-16T06:08:31.208Z,99.90
2023-02-16T06:10:58.223Z,99.90
2023-02-16T06:13:25.581Z,99.90
2023-02-16T06:15:56.104Z,99.90
2023-02-16T06:18:24.326Z,99.90
2023-02-16T06:20:50.866Z,99.90
2023-02-16T06:23:18.173Z,99.90
2023-02-16T06:25:50.528Z,99.90
2023-02-16T06:28:17.121Z,99.90
2023-02-16T06:30:43.775Z,99.90
2023-02-16T06:33:10.913Z,99.90
2023-02-16T06:35:37.414Z,99.90
2023-02-16T06:38:03.888Z,99.90
2023-02-16T06:40:30.412Z,99.90
2023-02-16T06:42:57.086Z,99.90
2023-02-16T06:45:23.554Z,99.90
2023-02-16T06:47:50.044Z,99.90
2023-02-16T06:50:16.983Z,99.90
2023-02-16T06:52:43.472Z,99.90
2023-02-16T06:55:10.019Z,99.90
2023-02-16T06:57:36.542Z,99.90
2023-02-16T07:00:06.137Z,99.90
2023-02-16T07:02:34.950Z,99.90
2023-02-16T07:05:02.512Z,99.90
2023-02-16T07:07:29.093Z,99.90
2023-02-16T07:09:55.590Z,99.90
2023-02-16T07:12:22.045Z,99.90
2023-02-16T07:14:48.508Z,99.90
2023-02-16T07:17:15.001Z,99.90
2023-02-16T07:19:41.542Z,99.90
2023-02-16T07:22:08.036Z,99.90
2023-02-16T07:24:34.494Z,99.90
2023-02-16T07:27:01.067Z,99.90
2023-02-16T07:29:27.884Z,99.90
2023-02-16T07:31:55.844Z,99.90
2023-02-16T07:36:51.360Z,99.90
2023-02-16T07:39:17.893Z,99.90
2023-02-16T07:41:44.607Z,99.90
2023-02-16T07:44:11.090Z,99.90
2023-02-16T07:46:37.595Z,99.90
2023-02-16T07:49:04.558Z,99.90
2023-02-16T07:51:32.024Z,99.90
2023-02-16T07:54:00.301Z,99.90
2023-02-16T07:56:30.614Z,99.90
2023-02-16T07:59:00.086Z,99.90
2023-02-16T08:01:27.614Z,99.90
2023-02-16T08:03:54.058Z,99.90
2023-02-16T08:06:20.690Z,99.90
2023-02-16T08:08:47.400Z,99.90
2023-02-16T08:11:21.188Z,99.90
2023-02-16T08:13:48.054Z,99.90
2023-02-16T08:16:20.462Z,99.90
2023-02-16T08:18:47.082Z,99.90
2023-02-16T08:21:21.000Z,99.90
2023-02-16T08:23:57.847Z,99.90
2023-02-16T08:26:28.903Z,99.90
2023-02-16T08:28:58.029Z,99.90
2023-02-16T08:31:29.175Z,99.90
2023-02-16T08:33:58.547Z,99.90
2023-02-16T08:36:32.373Z,99.90
2023-02-16T08:39:04.249Z,99.90
2023-02-16T08:41:36.703Z,99.90
2023-02-16T08:44:05.686Z,99.90
2023-02-16T08:46:35.210Z,99.90
2023-02-16T08:49:02.379Z,99.90
2023-02-16T08:51:34.059Z,99.90
2023-02-16T08:54:05.619Z,99.90
2023-02-16T08:56:32.448Z,99.90
2023-02-16T08:58:59.736Z,99.90
2023-02-16T09:01:26.883Z,99.90
2023-02-16T09:03:54.094Z,99.90
2023-02-16T09:06:22.141Z,99.90
2023-02-16T09:08:54.761Z,99.90
2023-02-16T09:11:23.657Z,99.90
2023-02-16T09:13:50.695Z,99.90
2023-02-16T09:16:22.832Z,99.90
2023-02-16T09:18:51.125Z,99.90
2023-02-16T09:21:24.665Z,99.90
2023-02-16T09:23:55.032Z,99.60
2023-02-16T09:26:23.432Z,99.10
2023-02-16T09:28:50.287Z,98.50
2023-02-16T09:31:28.012Z,98.40
2023-02-16T09:34:07.548Z,98.10
2023-02-16T09:36:34.875Z,97.40
2023-02-16T09:39:01.619Z,96.50
2023-02-16T09:42:23.652Z,96.40
2023-02-16T09:45:13.325Z,96.20
2023-02-16T09:47:45.789Z,97.20
2023-02-16T09:50:52.140Z,97.10
2023-02-16T09:53:36.764Z,97.30
2023-02-16T09:56:39.585Z,97.20
2023-02-16T09:59:26.967Z,97.20
2023-02-16T10:03:48.502Z,97.30
2023-02-16T10:08:59.837Z,97.10
2023-02-16T10:12:41.934Z,96.60
2023-02-16T10:15:21.603Z,96.30
2023-02-16T10:18:15.792Z,96.20
2023-02-16T10:20:48.374Z,95.80
2023-02-16T10:23:48.067Z,95.50
2023-02-16T10:26:45.556Z,95.00
2023-02-16T10:29:22.548Z,94.70
2023-02-16T10:32:33.973Z,93.90
2023-02-16T10:35:37.396Z,93.40
2023-02-16T10:39:15.861Z,92.80
2023-02-16T10:41:58.936Z,92.50
2023-02-16T10:44:36.602Z,92.10
2023-02-16T10:47:06.711Z,91.60
2023-02-16T10:49:36.511Z,91.70
2023-02-16T10:52:06.989Z,91.90
2023-02-16T10:54:34.382Z,91.30
2023-02-16T10:57:25.047Z,91.40
2023-02-16T10:59:53.955Z,91.40
2023-02-16T11:02:34.657Z,91.40
2023-02-16T11:05:03.161Z,91.10
2023-02-16T11:07:30.972Z,90.50
2023-02-16T11:10:02.560Z,90.90
2023-02-16T11:12:37.665Z,90.30
2023-02-16T11:15:25.618Z,90.60
2023-02-16T11:18:35.799Z,90.20
2023-02-16T11:21:04.033Z,90.20
2023-02-16T11:23:37.678Z,90.60
2023-02-16T11:26:37.414Z,90.40
2023-02-16T11:29:19.974Z,90.90
2023-02-16T11:31:46.749Z,90.60
2023-02-16T11:34:35.430Z,90.70
2023-02-16T11:37:25.380Z,90.70
2023-02-16T11:40:03.702Z,90.50
2023-02-16T11:42:48.057Z,90.60
2023-02-16T11:45:31.624Z,90.50
2023-02-16T11:48:29.267Z,90.40
2023-02-16T11:51:09.177Z,90.50
2023-02-16T11:53:41.757Z,90.40
2023-02-16T11:56:30.609Z,90.00
2023-02-16T11:59:18.500Z,89.60
2023-02-16T12:02:22.337Z,89.60
2023-02-16T12:06:57.786Z,89.40
2023-02-16T12:11:08.508Z,89.50
2023-02-16T12:16:52.030Z,87.60
2023-02-16T12:21:12.213Z,87.10
2023-02-16T12:25:46.332Z,84.90
2023-02-16T12:28:51.737Z,82.90
2023-02-16T12:32:29.659Z,82.80
2023-02-16T12:35:45.829Z,80.50
2023-02-16T12:40:09.709Z,77.80
2023-02-16T12:43:17.976Z,78.20
2023-02-16T12:45:47.883Z,78.20
2023-02-16T12:49:29.806Z,76.90
2023-02-16T12:53:48.056Z,76.40
2023-02-16T12:56:24.051Z,78.40
2023-02-16T12:59:02.909Z,79.40
2023-02-16T13:01:35.596Z,80.50
2023-02-16T13:08:13.443Z,79.90
2023-02-16T13:10:59.663Z,78.20
2023-02-16T13:13:32.700Z,78.30
2023-02-16T13:16:49.252Z,77.60
2023-02-16T13:19:16.332Z,78.80
2023-02-16T13:24:45.785Z,79.10
2023-02-16T13:28:04.632Z,79.00
2023-02-16T13:31:24.037Z,78.90
2023-02-16T13:34:24.108Z,77.80
2023-02-16T13:40:34.159Z,76.80
2023-02-16T13:44:57.559Z,77.60
2023-02-16T13:47:36.962Z,74.30
2023-02-16T13:50:30.907Z,75.00
2023-02-16T13:53:15.870Z,74.20
2023-02-16T13:55:42.436Z,76.30
2023-02-16T13:58:31.814Z,77.20
2023-02-16T14:00:58.315Z,76.60
2023-02-16T14:03:38.069Z,77.70
2023-02-16T14:06:39.150Z,76.90
2023-02-16T14:10:12.889Z,77.60
2023-02-16T14:12:40.489Z,77.80
2023-02-16T14:15:19.809Z,77.40
2023-02-16T14:17:46.603Z,78.00
2023-02-16T14:20:33.862Z,78.20
2023-02-16T14:23:00.424Z,77.50
2023-02-16T14:25:39.565Z,77.40
2023-02-16T14:29:53.768Z,77.90
2023-02-16T14:32:33.057Z,79.40
2023-02-16T14:35:20.805Z,79.80
2023-02-16T14:38:28.467Z,79.90
2023-02-16T14:41:02.376Z,80.00
2023-02-16T14:46:09.907Z,80.60
2023-02-16T14:52:59.618Z,80.70
2023-02-16T14:57:23.388Z,81.60
2023-02-16T15:01:31.119Z,82.20
2023-02-16T15:03:58.504Z,82.40
2023-02-16T15:06:46.044Z,82.90
2023-02-16T15:09:26.358Z,83.60
2023-02-16T15:12:20.769Z,84.30
2023-02-16T15:14:55.795Z,84.10
2023-02-16T15:17:47.212Z,83.60
2023-02-16T15:20:37.800Z,83.50
2023-02-16T15:23:16.136Z,85.00
2023-02-16T15:25:53.930Z,86.90
2023-02-16T15:28:27.120Z,87.30
2023-02-16T15:31:10.074Z,86.00
2023-02-16T15:33:56.990Z,86.80
2023-02-16T15:36:39.140Z,87.10
2023-02-16T15:39:42.625Z,86.70
2023-02-16T15:42:29.011Z,87.10
2023-02-16T15:44:58.500Z,87.70
2023-02-16T15:47:26.585Z,89.00
2023-02-16T15:49:53.359Z,89.10
2023-02-16T15:52:32.891Z,89.40
2023-02-16T15:55:04.032Z,89.60
2023-02-16T15:57:40.454Z,90.00
2023-02-16T16:00:20.889Z,90.00
2023-02-16T16:02:52.154Z,90.10
2023-02-16T16:05:40.066Z,90.10
2023-02-16T16:08:13.191Z,90.20
2023-02-16T16:10:41.367Z,90.40
2023-02-16T16:13:31.328Z,90.40
2023-02-16T16:16:04.015Z,90.60
2023-02-16T16:18:50.274Z,90.80
2023-02-16T16:21:33.368Z,91.20
2023-02-16T16:24:10.944Z,91.30
2023-02-16T16:26:58.850Z,91.60
2023-02-16T16:29:44.703Z,91.80
2023-02-16T16:32:22.053Z,92.20
2023-02-16T16:34:49.371Z,92.60
2023-02-16T16:37:34.904Z,92.90
2023-02-16T16:40:26.640Z,93.00
2023-02-16T16:43:17.075Z,93.10
2023-02-16T16:45:48.001Z,92.90
2023-02-16T16:48:24.500Z,93.10
2023-02-16T16:51:17.965Z,93.40
2023-02-16T16:54:29.663Z,93.80
2023-02-16T16:56:56.895Z,93.70
2023-02-16T16:59:23.424Z,93.80
2023-02-16T17:01:49.932Z,94.00
2023-02-16T17:04:17.144Z,94.30
2023-02-16T17:06:44.851Z,94.60
2023-02-16T17:09:11.342Z,94.80
2023-02-16T17:11:38.321Z,95.30
2023-02-16T17:14:15.404Z,95.60
2023-02-16T17:16:45.988Z,96.00
2023-02-16T17:19:18.580Z,96.50
2023-02-16T17:21:46.538Z,96.80
2023-02-16T17:24:13.883Z,96.50
2023-02-16T17:26:40.698Z,96.20
2023-02-16T17:29:07.742Z,95.90
2023-02-16T17:31:34.712Z,95.70
2023-02-16T17:34:01.242Z,95.70
2023-02-16T17:36:28.177Z,95.80
2023-02-16T17:38:55.123Z,95.80
2023-02-16T17:41:28.975Z,95.80
2023-02-16T17:43:55.484Z,96.10
2023-02-16T17:46:24.049Z,95.90
2023-02-16T17:48:54.267Z,95.90
2023-02-16T17:51:24.803Z,96.00
2023-02-16T17:53:51.588Z,95.80
2023-02-16T17:56:23.122Z,96.00
2023-02-16T17:58:50.395Z,96.00
2023-02-16T18:01:19.239Z,96.20
2023-02-16T18:03:46.151Z,96.40
2023-02-16T18:06:15.366Z,96.20
2023-02-16T18:08:42.503Z,96.20
2023-02-16T18:11:09.319Z,96.20
2023-02-16T18:13:36.020Z,96.40
2023-02-16T18:16:03.206Z,96.70
2023-02-16T18:18:29.980Z,96.60
2023-02-16T18:20:56.451Z,96.90
2023-02-16T18:23:22.924Z,97.00
2023-02-16T18:25:49.395Z,96.90
2023-02-16T18:28:20.080Z,96.70
2023-02-16T18:30:49.769Z,96.70
2023-02-16T18:33:21.317Z,96.90
2023-02-16T18:35:51.574Z,97.00
2023-02-16T18:38:20.059Z,96.90
2023-02-16T18:40:49.367Z,97.10
2023-02-16T18:43:15.847Z,97.10
2023-02-16T18:45:42.594Z,96.90
2023-02-16T18:48:09.522Z,96.70
2023-02-16T18:50:36.012Z,97.70
2023-02-16T18:53:02.755Z,98.20
2023-02-16T18:55:32.245Z,98.40
2023-02-16T18:58:00.557Z,99.20
2023-02-16T19:00:27.327Z,99.90
2023-02-16T19:02:54.639Z,99.90
2023-02-16T19:05:21.499Z,99.90
2023-02-16T19:07:48.472Z,99.90
2023-02-16T19:10:15.347Z,99.90
2023-02-16T19:12:41.895Z,99.80
2023-02-16T19:15:09.197Z,99.90
2023-02-16T19:17:37.749Z,99.90
2023-02-16T19:20:08.965Z,99.90
2023-02-16T19:22:36.468Z,99.90
2023-02-16T19:25:05.621Z,99.90
2023-02-16T19:27:32.882Z,99.90
2023-02-16T19:29:59.727Z,99.90
2023-02-16T19:32:26.285Z,99.90
2023-02-16T19:34:52.818Z,99.90
2023-02-16T19:37:19.326Z,99.90
2023-02-16T19:39:45.784Z,99.90
2023-02-16T19:42:12.293Z,99.90
2023-02-16T19:44:39.754Z,99.90
2023-02-16T19:47:06.664Z,99.90
2023-02-16T19:49:33.635Z,99.90
2023-02-16T19:52:01.966Z,99.90
2023-02-16T19:54:33.897Z,99.90
2023-02-16T19:57:01.127Z,99.90
2023-02-16T19:59:27.776Z,99.90
2023-02-16T20:01:54.305Z,99.90
2023-02-16T20:04:20.845Z,99.90
2023-02-16T20:06:48.950Z,99.90
2023-02-16T20:09:17.588Z,99.90
2023-02-16T20:11:44.277Z,99.90
2023-02-16T20:14:12.474Z,99.90
2023-02-16T20:16:40.335Z,99.90
2023-02-16T20:19:06.913Z,99.90
2023-02-16T20:21:35.718Z,99.90
2023-02-16T20:24:05.238Z,99.90
2023-02-16T20:26:37.074Z,99.90
2023-02-16T20:29:06.924Z,99.90
2023-02-16T20:31:42.212Z,99.90
2023-02-16T20:34:10.030Z,99.90
2023-02-16T20:36:36.803Z,99.90
2023-02-16T20:39:06.292Z,99.90
2023-02-16T20:41:32.900Z,99.90
2023-02-16T20:44:05.128Z,99.90
2023-02-16T20:46:32.365Z,99.90
2023-02-16T20:48:58.901Z,99.90
2023-02-16T20:51:25.836Z,99.90
2023-02-16T20:53:52.482Z,99.90
2023-02-16T20:56:24.382Z,99.90
2023-02-16T20:58:54.621Z,99.90
2023-02-16T21:01:26.211Z,99.90
2023-02-16T21:03:54.190Z,99.90
2023-02-16T21:06:22.127Z,99.90
2023-02-16T21:08:48.678Z,99.90
2023-02-16T21:11:16.152Z,99.90
2023-02-16T21:13:43.185Z,99.90
2023-02-16T21:16:11.118Z,99.90
2023-02-16T21:18:40.417Z,99.90
2023-02-16T21:21:08.495Z,99.90
2023-02-16T21:23:35.000Z,99.90
2023-02-16T21:26:04.750Z,99.90
2023-02-16T21:28:31.434Z,99.90
2023-02-16T21:31:09.077Z,99.90
2023-02-16T21:33:36.621Z,99.90
2023-02-16T21:36:16.608Z,99.90
2023-02-16T21:38:45.776Z,99.90
2023-02-16T21:41:26.874Z,99.90
2023-02-16T21:44:14.306Z,99.90
2023-02-16T21:46:44.884Z,99.90
2023-02-16T21:49:18.684Z,99.90
2023-02-16T21:51:47.310Z,99.90
2023-02-16T21:56:15.805Z,99.90
2023-02-16T21:58:43.338Z,99.90
2023-02-16T22:01:10.240Z,99.90
2023-02-16T22:03:37.246Z,99.90
2023-02-16T22:06:07.559Z,99.90
2023-02-16T22:08:37.259Z,99.90
2023-02-16T22:11:10.771Z,99.90
2023-02-16T22:13:39.080Z,99.90
2023-02-16T22:16:11.641Z,99.90
2023-02-16T22:18:39.453Z,99.90
2023-02-16T22:21:07.341Z,99.90
2023-02-16T22:23:35.675Z,99.90
2023-02-16T22:26:03.796Z,99.90
2023-02-16T22:28:30.820Z,99.90
2023-02-16T22:30:57.555Z,99.90
2023-02-16T22:33:24.543Z,99.90
2023-02-16T22:35:51.005Z,99.90
2023-02-16T22:38:17.482Z,99.90
2023-02-16T22:40:43.945Z,99.90
2023-02-16T22:43:10.430Z,99.90
2023-02-16T22:45:37.242Z,99.90
2023-02-16T22:48:04.052Z,99.90
2023-02-16T22:50:30.514Z,99.90
2023-02-16T22:52:56.968Z,99.90
2023-02-16T22:55:23.452Z,99.90
2023-02-16T22:57:49.916Z,99.90
2023-02-16T23:00:18.124Z,99.90
2023-02-16T23:02:44.598Z,99.90
2023-02-16T23:05:11.115Z,99.90
2023-02-16T23:07:37.582Z,99.90
2023-02-16T23:10:05.263Z,99.90
2023-02-16T23:12:31.754Z,99.90
2023-02-16T23:14:58.228Z,99.90
2023-02-16T23:17:24.829Z,99.90
2023-02-16T23:19:51.303Z,99.90
2023-02-16T23:22:17.797Z,99.90
2023-02-16T23:24:44.280Z,99.90
2023-02-16T23:27:10.783Z,99.90
2023-02-16T23:29:37.267Z,99.90
2023-02-16T23:32:05.757Z,99.90
2023-02-16T23:34:32.290Z,99.90
2023-02-16T23:36:58.766Z,99.90
2023-02-16T23:39:25.279Z,99.90
2023-02-16T23:41:51.789Z,99.90
2023-02-16T23:44:18.285Z,99.90
2023-02-16T23:46:44.833Z,99.90
2023-02-16T23:49:11.311Z,99.90
2023-02-16T23:51:37.839Z,99.90
2023-02-16T23:54:04.410Z,99.90
2023-02-16T23:56:30.958Z,99.90
2023-02-16T23:58:59.943Z,99.90
